Terminal Aerodrome Forecast
Issued by NWS

Home | Current Version | Previous Version | Text Only | Print | Product List | Glossary Off
Versions: 1 2 3 4 5 6 7 8 9 10 11 12 13 14 15 16 17 18 19 20 21 22 23 24 25 26 27 28 29 30 31 32 33 34 35 36 37 38 39 40 41 42 43 44

000
FTUS43 KGRB 250500
TAFRHI
TAF
KRHI 250520Z 2506/2606 28007KT P6SM SCT008 OVC015
      TEMPO 2506/2510 6SM -FZDZSN OVC006
     FM251000 27008KT P6SM OVC006
     FM251500 21007KT P6SM BKN022 OVC080 PROB30 2519/2601 4SM -SN
      OVC018
     FM260200 00000KT 4SM BR BKN008 OVC070=

USA.gov is the U.S. government's official web portal to all federal, state and local government web resources and services.